Time;durP1;ratioP1;P1;durP2;ratioP2;P2;SDS_P1;SDS_P2;PMS_P1;PMS_P2;Temp;Humidity;BMP_temperature;BMP_pressure;BME280_temperature;BME280_humidity;BME280_pressure;Samples;Min_cycle;Max_cycle;Signal;HPM_P1;HPM_P2
2022/03/25 00:01:29;;;;;;;27.70;22.60;;;13.50;49.70;;;16.46;39.78;102884.88;5007108;28;20201;-50
2022/03/25 00:03:57;;;;;;;32.13;24.60;;;13.50;49.60;;;16.48;39.82;102888.22;5022644;28;20267;-51
2022/03/25 00:06:26;;;;;;;33.67;25.50;;;13.50;49.70;;;16.49;40.19;102876.59;5024266;28;20201;-51
2022/03/25 00:08:55;;;;;;;33.23;25.30;;;13.60;49.80;;;16.48;40.20;102889.03;5022887;28;20759;-51
2022/03/25 00:11:22;;;;;;;38.83;27.17;;;13.60;49.40;;;16.48;39.76;102881.06;5019921;28;20250;-51
2022/03/25 00:13:49;;;;;;;35.00;25.80;;;13.60;49.20;;;16.50;39.32;102886.22;5019873;28;20202;-50
2022/03/25 00:16:17;;;;;;;36.17;28.40;;;13.60;49.40;;;16.47;39.74;102883.91;5019976;28;20195;-51
2022/03/25 00:18:44;;;;;;;37.00;28.83;;;13.60;50.10;;;16.43;40.01;102885.19;5020044;28;20242;-51
2022/03/25 00:21:12;;;;;;;35.67;28.10;;;13.50;50.40;;;16.39;40.19;102883.84;5016918;28;20266;-52
2022/03/25 00:23:39;;;;;;;36.83;26.17;;;13.40;50.70;;;16.35;40.37;102890.50;5021217;28;20311;-51
2022/03/25 00:26:08;;;;;;;36.90;28.17;;;13.40;50.40;;;16.33;40.25;102887.16;5020935;28;20214;-50
2022/03/25 00:28:37;;;;;;;40.13;29.87;;;13.40;50.70;;;16.26;40.07;102889.59;5020769;28;20302;-52
2022/03/25 00:31:08;;;;;;;34.47;27.70;;;13.30;50.30;;;16.19;40.06;102889.41;5019161;28;20504;-50
2022/03/25 00:33:42;;;;;;;37.63;27.87;;;13.30;50.40;;;16.08;40.34;102892.34;5003711;28;20188;-51
2022/03/25 00:36:12;;;;;;;35.37;28.33;;;13.20;50.40;;;15.97;40.60;102887.31;5001905;28;20173;-52
2022/03/25 00:38:39;;;;;;;37.10;28.13;;;13.00;50.70;;;15.88;41.20;102879.44;5002017;28;20191;-52
2022/03/25 00:41:08;;;;;;;43.20;29.40;;;13.00;51.40;;;15.83;41.22;102882.53;5004307;28;20196;-50
2022/03/25 00:43:36;;;;;;;35.43;27.07;;;13.00;51.40;;;15.78;41.46;102882.19;5020605;28;20206;-52
2022/03/25 00:46:05;;;;;;;37.33;28.73;;;12.90;51.10;;;15.76;41.72;102886.81;5020386;28;20195;-55
2022/03/25 00:48:32;;;;;;;43.20;32.27;;;12.90;52.20;;;15.76;41.58;102886.81;5019837;28;20223;-51
2022/03/25 00:51:00;;;;;;;36.43;29.00;;;12.80;52.80;;;15.72;41.89;102885.47;5019860;28;20210;-52
2022/03/25 00:53:27;;;;;;;40.70;31.10;;;12.70;52.80;;;15.71;42.04;102885.63;5021020;28;20286;-52
2022/03/25 00:55:54;;;;;;;39.50;29.90;;;12.70;52.80;;;15.69;41.73;102887.59;5020622;28;20202;-50
2022/03/25 00:58:23;;;;;;;43.13;31.23;;;12.70;52.40;;;15.62;41.43;102895.34;5019744;28;20222;-52
2022/03/25 01:00:50;;;;;;;39.53;30.77;;;12.60;52.50;;;15.54;41.96;102887.31;5019755;28;20202;-52
2022/03/25 01:03:18;;;;;;;42.67;31.33;;;12.60;52.80;;;15.51;42.29;102893.78;5019522;28;20233;-51
2022/03/25 01:05:45;;;;;;;40.13;30.97;;;12.50;53.20;;;15.47;42.33;102886.28;5019680;28;20591;-49
2022/03/25 01:08:14;;;;;;;43.10;32.23;;;12.50;53.10;;;15.49;42.51;102889.59;5019293;28;20294;-51
2022/03/25 01:10:46;;;;;;;43.47;32.90;;;12.50;53.30;;;15.49;42.16;102890.44;5019747;28;20222;-50
2022/03/25 01:13:13;;;;;;;44.33;32.13;;;12.50;53.50;;;15.45;42.24;102889.06;4999531;28;20192;-46
2022/03/25 01:15:42;;;;;;;42.60;32.47;;;12.50;53.60;;;15.44;42.57;102894.50;4997914;28;20742;-48
2022/03/25 01:18:10;;;;;;;42.73;32.23;;;12.50;53.50;;;15.40;42.18;102891.31;4997675;28;20238;-48
2022/03/25 01:20:38;;;;;;;39.47;30.87;;;12.40;53.20;;;15.34;42.15;102891.09;4998393;28;20189;-49
2022/03/25 01:23:07;;;;;;;44.10;32.60;;;12.30;53.40;;;15.31;42.52;102886.09;4998908;28;20677;-48
2022/03/25 01:25:35;;;;;;;39.60;30.33;;;12.30;53.30;;;15.30;42.86;102885.28;4997083;28;20195;-48
2022/03/25 01:28:02;;;;;;;41.03;32.93;;;12.30;53.70;;;15.30;42.57;102885.28;4997286;28;20283;-49
2022/03/25 01:30:31;;;;;;;44.63;33.73;;;12.30;53.90;;;15.30;42.62;102884.44;4997657;28;20222;-49
2022/03/25 01:32:59;;;;;;;42.43;31.47;;;12.30;54.00;;;15.26;42.90;102877.78;5014810;28;20279;-47
2022/03/25 01:35:26;;;;;;;42.83;31.27;;;12.30;54.10;;;15.25;43.01;102882.25;5017721;28;20646;-49
2022/03/25 01:37:55;;;;;;;40.00;32.07;;;12.20;53.90;;;15.26;43.02;102877.78;5018587;28;20222;-49
2022/03/25 01:40:22;;;;;;;42.40;31.97;;;12.30;53.90;;;15.27;43.07;102879.41;5019044;28;20183;-49
2022/03/25 01:42:49;;;;;;;41.60;30.70;;;12.30;53.90;;;15.29;43.20;102877.44;5015838;28;20199;-48
2022/03/25 01:45:32;;;;;;;40.10;29.83;;;12.40;53.80;;;15.30;42.88;102884.44;5005891;28;20556;-47
2022/03/25 01:48:03;;;;;;;40.67;30.97;;;12.40;53.70;;;15.37;42.88;102885.50;4996112;28;20275;-49
2022/03/25 01:50:31;;;;;;;40.37;30.77;;;12.50;53.60;;;15.39;42.64;102884.34;4994788;28;20224;-47
2022/03/25 01:52:58;;;;;;;45.60;33.00;;;12.50;53.30;;;15.42;42.79;102883.22;5011416;28;20567;-47
2022/03/25 01:55:27;;;;;;;42.23;31.73;;;12.50;53.40;;;15.45;42.61;102882.94;5014423;28;20187;-48
2022/03/25 01:57:58;;;;;;;47.73;34.93;;;12.60;53.20;;;15.42;42.47;102883.22;5014566;28;20585;-47
2022/03/25 02:00:30;;;;;;;43.80;32.93;;;12.60;53.10;;;15.38;42.55;102881.88;5014914;28;20203;-47
2022/03/25 02:02:58;;;;;;;42.10;33.00;;;12.50;53.00;;;15.34;42.72;102881.31;5013331;28;20186;-48
2022/03/25 02:05:26;;;;;;;41.57;31.00;;;12.50;53.20;;;15.31;42.69;102878.97;5015035;28;20662;-48
2022/03/25 02:07:54;;;;;;;43.47;32.20;;;12.50;53.00;;;15.31;42.78;102875.47;5014399;28;20218;-48
2022/03/25 02:10:22;;;;;;;41.63;31.70;;;12.50;53.20;;;15.32;42.77;102878.00;5013784;28;20210;-47
2022/03/25 02:12:50;;;;;;;40.53;30.33;;;12.50;53.20;;;15.34;43.21;102880.47;5012936;28;20205;-49
2022/03/25 02:15:17;;;;;;;42.03;30.83;;;12.50;53.30;;;15.35;42.58;102887.47;5013885;28;20703;-47
2022/03/25 02:17:44;;;;;;;41.03;32.07;;;12.50;53.10;;;15.34;42.56;102886.63;5013214;28;20219;-47
2022/03/25 02:20:12;;;;;;;41.87;32.73;;;12.50;53.10;;;15.34;42.45;102880.47;5012826;28;20192;-49
2022/03/25 02:22:41;;;;;;;46.80;35.03;;;12.50;53.10;;;15.34;42.31;102875.16;4999789;28;20243;-48
2022/03/25 02:25:11;;;;;;;53.43;36.63;;;12.50;53.20;;;15.29;42.12;102880.09;4994606;28;20196;-48
2022/03/25 02:27:38;;;;;;;50.23;34.73;;;12.40;53.20;;;15.23;42.65;102878.06;4993972;28;20218;-47
2022/03/25 02:30:08;;;;;;;43.23;33.47;;;12.30;53.50;;;15.18;42.79;102875.03;4994350;28;20223;-48
2022/03/25 02:32:36;;;;;;;45.47;34.27;;;12.30;53.70;;;15.13;43.09;102872.84;5007827;28;20207;-47
2022/03/25 02:35:05;;;;;;;45.97;34.73;;;12.30;53.70;;;15.09;42.72;102870.63;5013988;28;20257;-47
2022/03/25 02:37:33;;;;;;;45.27;34.77;;;12.20;53.20;;;15.05;43.00;102869.28;5013323;28;20235;-48
2022/03/25 02:40:02;;;;;;;47.30;35.30;;;12.20;53.40;;;15.03;42.99;102879.19;5013604;28;20556;-48
2022/03/25 02:42:30;;;;;;;46.37;35.33;;;12.20;53.30;;;15.01;42.89;102875.84;5014708;28;20688;-48
2022/03/25 02:44:57;;;;;;;47.87;36.40;;;12.10;53.40;;;14.95;43.06;102871.16;5015809;28;20198;-48
2022/03/25 02:47:24;;;;;;;44.90;34.60;;;12.10;53.50;;;14.88;42.87;102868.28;5013062;28;20599;-47
2022/03/25 02:49:51;;;;;;;53.10;37.23;;;12.00;53.30;;;14.81;43.16;102868.03;5013330;28;20263;-48
2022/03/25 02:52:19;;;;;;;51.33;35.87;;;11.90;53.40;;;14.76;43.06;102867.66;5002514;28;20199;-49
2022/03/25 02:54:46;;;;;;;44.60;33.90;;;11.90;53.60;;;14.71;43.09;102871.75;4993931;28;20641;-48
2022/03/25 02:57:15;;;;;;;48.53;35.37;;;11.80;53.70;;;14.66;43.38;102871.34;4993457;28;20579;-47
2022/03/25 02:59:42;;;;;;;48.93;35.30;;;11.70;53.80;;;14.60;43.47;102871.94;4993686;28;20189;-47
2022/03/25 03:02:10;;;;;;;48.90;34.50;;;11.70;54.20;;;14.55;43.66;102866.22;5002507;28;20662;-46
2022/03/25 03:04:37;;;;;;;42.07;33.27;;;11.60;54.30;;;14.51;43.48;102864.88;5013280;28;20226;-48
2022/03/25 03:07:05;;;;;;;45.73;34.13;;;11.60;54.10;;;14.47;43.76;102861.69;5013068;28;20242;-47
2022/03/25 03:09:32;;;;;;;48.27;36.17;;;11.60;54.60;;;14.46;43.92;102869.78;5013066;28;20202;-46
2022/03/25 03:11:59;;;;;;;54.17;34.73;;;11.50;54.50;;;14.44;43.71;102864.63;5007472;28;20315;-47
2022/03/25 03:14:28;;;;;;;49.17;34.83;;;11.50;54.50;;;14.45;43.95;102865.47;4998431;28;20192;-48
2022/03/25 03:16:55;;;;;;;49.83;35.73;;;11.50;54.60;;;14.42;44.10;102866.59;4998541;28;20215;-48
2022/03/25 03:19:23;;;;;;;47.30;34.77;;;11.40;54.80;;;14.40;44.01;102881.81;4998386;28;20534;-48
2022/03/25 03:21:52;;;;;;;45.60;35.80;;;11.40;54.80;;;14.38;44.17;102881.09;4998536;28;20199;-49
2022/03/25 03:24:20;;;;;;;45.90;32.73;;;11.40;55.10;;;14.39;44.24;102876.63;4999729;28;20192;-49
2022/03/25 03:26:47;;;;;;;48.13;34.10;;;11.40;55.10;;;14.41;44.15;102875.50;4999972;28;20219;-46
2022/03/25 03:29:15;;;;;;;52.33;36.30;;;11.50;55.20;;;14.42;44.57;102871.91;5000815;28;20199;-48
2022/03/25 03:31:44;;;;;;;49.10;34.93;;;11.50;55.30;;;14.42;43.96;102877.19;5004808;28;20219;-47
2022/03/25 03:34:11;;;;;;;50.33;36.63;;;11.50;54.60;;;14.37;44.14;102879.44;5019572;28;20202;-47
2022/03/25 03:36:39;;;;;;;51.50;36.97;;;11.50;55.00;;;14.33;44.44;102877.25;5017979;28;20226;-48
2022/03/25 03:39:07;;;;;;;48.83;35.83;;;11.40;55.40;;;14.33;44.51;102882.53;5017559;28;20557;-48
2022/03/25 03:41:34;;;;;;;46.30;33.53;;;11.40;55.90;;;14.36;44.42;102884.91;5014243;28;20724;-48
2022/03/25 03:44:02;;;;;;;53.30;37.30;;;11.50;55.40;;;14.38;44.67;102875.00;4997131;28;20215;-48
2022/03/25 03:46:29;;;;;;;46.53;35.37;;;11.50;55.50;;;14.40;44.56;102884.47;4997221;28;20279;-49
2022/03/25 03:48:58;;;;;;;52.67;35.97;;;11.50;55.30;;;14.43;44.06;102880.69;4996515;28;20199;-48
2022/03/25 03:51:25;;;;;;;50.27;35.87;;;11.60;54.80;;;14.42;43.88;102885.16;4997970;28;20226;-49
2022/03/25 03:53:53;;;;;;;46.97;34.80;;;11.50;54.50;;;14.37;44.20;102879.44;5015842;28;20202;-50
2022/03/25 03:56:22;;;;;;;44.37;32.93;;;11.50;54.80;;;14.35;44.12;102880.56;5015536;28;20195;-48
2022/03/25 03:58:49;;;;;;;45.63;35.87;;;11.40;54.90;;;14.31;44.66;102880.00;5015919;28;20551;-48
2022/03/25 04:01:17;;;;;;;52.60;36.07;;;11.40;55.50;;;14.29;44.68;102871.34;5015824;28;20187;-48
2022/03/25 04:03:45;;;;;;;45.30;34.90;;;11.40;55.50;;;14.28;44.58;102875.00;4996479;28;20247;-48
2022/03/25 04:06:13;;;;;;;48.77;36.73;;;11.40;55.40;;;14.25;44.62;102877.94;4996529;28;20663;-50
2022/03/25 04:08:41;;;;;;;49.13;35.40;;;11.40;55.40;;;14.21;44.56;102868.63;4998117;28;20200;-48
2022/03/25 04:11:08;;;;;;;47.70;34.13;;;11.40;55.30;;;14.19;44.45;102870.59;4995986;28;20214;-49
2022/03/25 04:13:35;;;;;;;45.93;33.30;;;11.40;55.00;;;14.17;43.93;102870.72;5014108;28;20526;-51
2022/03/25 04:16:03;;;;;;;48.37;36.67;;;11.30;54.80;;;14.12;44.64;102872.16;5015221;28;20202;-48
2022/03/25 04:18:31;;;;;;;53.60;36.87;;;11.20;55.30;;;14.06;44.80;102875.34;5015627;28;20218;-49
2022/03/25 04:20:58;;;;;;;44.97;33.80;;;11.20;55.90;;;14.06;44.99;102891.25;5015444;28;20252;-49
2022/03/25 04:23:27;;;;;;;53.07;37.13;;;11.10;55.90;;;14.07;45.16;102884.97;4996574;28;20200;-49
2022/03/25 04:25:54;;;;;;;43.20;32.97;;;11.20;56.10;;;14.10;44.41;102877.56;4995455;28;20713;-48
2022/03/25 04:28:22;;;;;;;49.60;35.33;;;11.20;55.60;;;14.09;44.73;102875.91;4995278;28;20670;-50
2022/03/25 04:30:49;;;;;;;49.27;33.43;;;11.20;55.50;;;14.07;44.25;102877.84;4995466;28;20220;-50
2022/03/25 04:33:17;;;;;;;44.67;34.73;;;11.20;55.70;;;14.02;44.47;102882.78;4996800;28;20200;-51
2022/03/25 04:35:44;;;;;;;56.30;37.43;;;11.10;55.20;;;13.96;45.08;102879.84;4995340;28;20199;-49
2022/03/25 04:38:11;;;;;;;49.40;36.17;;;11.00;56.10;;;13.91;44.82;102882.06;4995212;28;20693;-50
2022/03/25 04:40:41;;;;;;;47.00;35.83;;;11.00;55.70;;;13.88;44.87;102892.97;4995213;28;20549;-49
2022/03/25 04:43:08;;;;;;;50.57;38.00;;;10.90;55.50;;;13.81;44.51;102886.59;5009490;28;20203;-50
2022/03/25 04:45:36;;;;;;;51.93;36.77;;;10.90;55.50;;;13.74;44.78;102880.19;5015115;28;20654;-49
2022/03/25 04:48:04;;;;;;;50.60;36.37;;;10.80;55.60;;;13.66;45.08;102893.28;5014431;28;20218;-48
2022/03/25 04:50:32;;;;;;;49.93;37.87;;;10.70;55.70;;;13.56;45.43;102888.00;5014886;28;20285;-51
2022/03/25 04:52:59;;;;;;;51.07;38.97;;;10.60;56.30;;;13.46;45.78;102888.00;5013954;28;20202;-48
2022/03/25 04:55:27;;;;;;;52.10;40.20;;;10.50;56.60;;;13.40;46.12;102895.69;5014681;28;20191;-48
2022/03/25 04:57:56;;;;;;;51.53;37.03;;;10.40;57.30;;;13.34;45.87;102891.75;5014560;28;20215;-48
2022/03/25 05:00:29;;;;;;;48.73;34.80;;;10.40;56.90;;;13.30;45.84;102892.19;5014643;28;20183;-48
2022/03/25 05:02:57;;;;;;;50.83;36.60;;;10.30;56.90;;;13.27;46.03;102892.47;5001802;28;20233;-51
2022/03/25 05:05:25;;;;;;;51.63;38.73;;;10.30;57.10;;;13.23;46.17;102886.63;4995601;28;20277;-47
2022/03/25 05:07:52;;;;;;;54.47;40.13;;;10.30;57.60;;;13.20;47.07;102888.69;4994423;28;20216;-49
2022/03/25 05:10:20;;;;;;;52.13;38.83;;;10.30;58.50;;;13.20;46.55;102886.91;4995017;28;20254;-47
2022/03/25 05:12:47;;;;;;;48.60;34.70;;;10.30;57.90;;;13.18;46.82;102888.84;5005339;28;20574;-49
2022/03/25 05:15:16;;;;;;;55.27;37.47;;;10.20;57.60;;;13.19;46.45;102894.97;5014281;28;20238;-47
2022/03/25 05:17:45;;;;;;;51.33;37.33;;;10.20;57.60;;;13.17;46.29;102895.09;5013924;28;20227;-46
2022/03/25 05:20:15;;;;;;;49.60;36.50;;;10.20;57.50;;;13.16;46.31;102896.09;5014779;28;20199;-49
2022/03/25 05:22:42;;;;;;;51.70;37.53;;;10.20;57.60;;;13.15;46.63;102904.97;5004277;28;20203;-49
2022/03/25 05:25:11;;;;;;;54.90;37.77;;;10.20;58.00;;;13.13;47.03;102906.94;4995006;28;20215;-49
2022/03/25 05:27:50;;;;;;;54.27;37.17;;;10.20;58.20;;;13.09;46.48;102904.69;5010445;28;20235;-47
2022/03/25 05:30:22;;;;;;;51.07;37.37;;;10.10;57.90;;;13.08;46.41;102909.16;4994880;28;20551;-46
2022/03/25 05:32:50;;;;;;;50.63;38.17;;;10.10;58.00;;;13.06;47.13;102919.03;4997683;28;20206;-47
2022/03/25 05:35:19;;;;;;;55.13;37.97;;;10.10;58.40;;;13.04;46.54;102920.94;4995121;28;20203;-47
2022/03/25 05:37:48;;;;;;;56.07;38.43;;;10.10;58.00;;;13.02;47.10;102922.06;4995052;28;20212;-48
2022/03/25 05:40:18;;;;;;;54.57;37.77;;;10.00;58.70;;;13.03;47.05;102926.34;4998188;28;20188;-50
2022/03/25 05:42:47;;;;;;;50.17;37.40;;;10.00;58.40;;;13.05;47.05;102925.25;5003836;28;20680;-47
2022/03/25 05:45:16;;;;;;;50.90;36.03;;;10.00;58.20;;;13.04;46.87;102928.88;5014501;28;20198;-47
2022/03/25 05:47:45;;;;;;;53.03;38.53;;;10.00;58.00;;;13.04;46.55;102928.88;5013951;28;20215;-47
2022/03/25 05:50:13;;;;;;;54.33;39.23;;;10.00;58.20;;;13.02;47.11;102930.81;5017960;28;20701;-48
2022/03/25 05:52:41;;;;;;;55.40;40.00;;;10.00;58.40;;;13.01;47.32;102929.16;5004609;28;20663;-48
2022/03/25 05:55:09;;;;;;;48.13;37.47;;;10.00;58.70;;;13.01;46.96;102928.31;4994287;28;20195;-47
2022/03/25 05:57:37;;;;;;;54.87;38.80;;;10.00;58.70;;;13.00;47.02;102932.78;4994216;28;20739;-47
2022/03/25 06:00:08;;;;;;;54.43;38.67;;;9.90;59.70;;;13.04;46.93;102938.59;4994318;28;20192;-48
2022/03/25 06:02:36;;;;;;;50.20;37.93;;;10.00;59.00;;;13.06;46.82;102937.53;4998210;28;20211;-47
2022/03/25 06:05:07;;;;;;;60.73;40.23;;;10.00;58.70;;;13.07;47.26;102933.94;4994233;28;20597;-47
2022/03/25 06:07:36;;;;;;;55.70;39.17;;;10.00;59.00;;;13.10;47.08;102938.94;4993778;28;20303;-48
2022/03/25 06:10:05;;;;;;;57.23;39.33;;;10.00;58.70;;;13.12;47.12;102939.63;4993560;28;20916;-49
2022/03/25 06:12:33;;;;;;;52.53;39.07;;;10.00;59.10;;;13.14;47.16;102939.50;5001388;28;20235;-50
2022/03/25 06:15:01;;;;;;;52.63;38.50;;;10.00;59.10;;;13.16;47.15;102943.69;5013291;28;20201;-48
2022/03/25 06:17:28;;;;;;;53.13;38.30;;;10.10;59.20;;;13.20;47.14;102945.06;5012354;28;20230;-49
2022/03/25 06:19:55;;;;;;;52.07;37.17;;;10.10;59.10;;;13.24;47.14;102941.16;5014337;28;20201;-48
2022/03/25 06:22:24;;;;;;;55.50;37.73;;;10.10;59.00;;;13.31;47.04;102941.47;5007818;28;20595;-46
2022/03/25 06:24:52;;;;;;;54.67;37.57;;;10.20;59.20;;;13.38;46.96;102947.88;4993941;28;20202;-49
2022/03/25 06:27:21;;;;;;;56.63;39.80;;;10.30;59.30;;;13.43;47.24;102941.19;4992077;28;20536;-49
2022/03/25 06:29:48;;;;;;;57.20;39.00;;;10.30;59.40;;;13.49;47.04;102950.38;4994189;28;20195;-52
2022/03/25 06:32:15;;;;;;;57.43;39.93;;;10.40;59.10;;;13.56;46.81;102957.63;4998387;28;20653;-48
2022/03/25 06:34:42;;;;;;;53.03;38.63;;;10.40;58.90;;;13.65;46.89;102961.25;4994114;28;20607;-48
2022/03/25 06:37:10;;;;;;;58.63;37.83;;;10.50;59.10;;;13.78;46.64;102966.25;4993713;28;20291;-48
2022/03/25 06:39:39;;;;;;;55.43;38.30;;;10.70;59.00;;;13.90;46.45;102976.56;4998241;28;20251;-49
2022/03/25 06:42:07;;;;;;;51.23;37.27;;;10.80;58.60;;;14.03;46.04;102982.41;5002342;28;20235;-50
2022/03/25 06:44:34;;;;;;;54.20;38.50;;;10.90;58.20;;;14.12;45.90;102989.47;4999295;28;20199;-49
2022/03/25 06:47:02;;;;;;;56.00;39.63;;;11.00;58.10;;;14.22;45.67;102984.16;4996567;28;20215;-48
2022/03/25 06:49:30;;;;;;;53.77;38.23;;;11.10;57.90;;;14.36;45.59;102983.75;4998227;28;20206;-48
2022/03/25 06:51:58;;;;;;;51.33;38.63;;;11.30;57.60;;;14.50;45.26;102993.88;4998766;28;20215;-50
2022/03/25 06:54:26;;;;;;;54.73;39.10;;;11.40;57.30;;;14.62;44.99;102992.72;5016770;28;20222;-49
2022/03/25 06:56:56;;;;;;;57.67;40.60;;;11.60;57.00;;;14.75;44.58;102990.59;5016956;28;20215;-47
2022/03/25 06:59:24;;;;;;;49.97;38.27;;;11.70;56.70;;;14.85;44.35;102980.78;5017468;28;20191;-49
2022/03/25 07:01:52;;;;;;;53.30;39.43;;;11.80;56.50;;;14.96;44.15;102986.84;5016714;28;20194;-50
2022/03/25 07:04:20;;;;;;;52.13;38.50;;;11.90;56.10;;;15.06;43.99;102987.66;4997386;28;20484;-50
2022/03/25 07:06:49;;;;;;;55.77;39.77;;;12.00;55.90;;;15.17;43.78;102995.38;4997030;28;20272;-50
2022/03/25 07:09:17;;;;;;;57.90;39.43;;;12.00;55.80;;;15.33;43.40;102995.59;4996959;28;20192;-50
2022/03/25 07:11:45;;;;;;;54.73;39.13;;;12.20;55.70;;;15.58;43.18;103000.16;4997710;28;20222;-49
2022/03/25 07:14:13;;;;;;;51.17;38.30;;;12.30;55.60;;;15.89;42.86;103001.47;4997430;28;20711;-48
2022/03/25 07:16:42;;;;;;;51.57;38.83;;;12.50;55.40;;;16.20;42.14;103002.69;4997272;28;20257;-51
2022/03/25 07:19:09;;;;;;;57.43;41.13;;;12.70;55.00;;;16.60;41.57;103003.97;4995676;28;20231;-50
2022/03/25 07:21:38;;;;;;;49.53;38.60;;;13.00;54.50;;;17.01;40.84;103003.16;4997502;28;20192;-48
2022/03/25 07:24:06;;;;;;;47.50;37.83;;;13.30;53.80;;;17.48;39.75;103001.63;4997028;28;20286;-48
2022/03/25 07:26:34;;;;;;;57.27;43.20;;;13.60;53.10;;;17.94;38.89;103002.03;4996538;28;20216;-51
2022/03/25 07:29:01;;;;;;;58.17;41.17;;;13.80;52.00;;;18.35;38.29;103000.16;4997083;28;20254;-49
2022/03/25 07:31:32;;;;;;;51.87;40.30;;;14.10;51.40;;;18.81;37.36;103002.03;4999345;28;20245;-50
2022/03/25 07:33:59;;;;;;;51.20;40.63;;;14.50;51.20;;;19.34;37.00;103006.59;4999255;28;20206;-48
2022/03/25 07:36:27;;;;;;;48.23;37.43;;;14.90;50.70;;;19.85;36.00;103003.25;5011250;28;20194;-51
2022/03/25 07:38:54;;;;;;;53.67;41.37;;;15.30;50.00;;;20.39;35.09;103005.78;4996055;28;20200;-49
2022/03/25 07:41:21;;;;;;;54.43;41.47;;;15.80;47.90;;;20.85;34.45;103007.25;4996809;28;20184;-51
2022/03/25 07:43:52;;;;;;;51.07;39.50;;;16.10;47.10;;;21.29;33.35;103012.56;5011729;28;20198;-50
2022/03/25 07:46:20;;;;;;;50.70;40.40;;;16.60;46.60;;;21.74;32.74;103011.38;5015908;28;20610;-50
2022/03/25 07:48:48;;;;;;;47.07;38.17;;;17.00;45.90;;;22.18;32.18;103020.03;5016630;28;20191;-49
2022/03/25 07:51:16;;;;;;;43.80;37.43;;;17.40;45.40;;;22.65;31.75;103022.03;5015716;28;20215;-48
2022/03/25 07:53:43;;;;;;;54.13;41.57;;;17.80;44.20;;;23.10;30.09;103018.75;5001323;28;20570;-49
2022/03/25 07:56:11;;;;;;;54.47;43.57;;;18.20;41.70;;;23.47;29.41;103020.09;4995602;28;20227;-49
2022/03/25 07:58:39;;;;;;;49.37;41.43;;;18.40;40.80;;;23.79;28.61;103024.72;5011518;28;20203;-50
2022/03/25 08:01:06;;;;;;;49.50;39.67;;;18.70;40.40;;;24.08;28.33;103027.00;4997006;28;20240;-49
2022/03/25 08:03:34;;;;;;;48.83;41.83;;;18.90;39.90;;;24.37;28.16;103028.44;5015989;28;20197;-48
2022/03/25 08:06:03;;;;;;;52.93;43.47;;;19.20;39.90;;;24.69;27.53;103026.72;5015416;28;20196;-50
2022/03/25 08:08:31;;;;;;;51.60;40.87;;;19.60;38.60;;;24.97;27.04;103027.28;5023144;28;20672;-48
2022/03/25 08:10:58;;;;;;;47.97;38.73;;;19.80;37.90;;;25.25;26.81;103026.91;5015203;28;20614;-49
2022/03/25 08:13:27;;;;;;;46.70;40.47;;;20.00;38.20;;;25.58;26.43;103029.47;5009561;28;20230;-50
2022/03/25 08:15:54;;;;;;;57.27;45.17;;;20.40;38.10;;;25.92;25.51;103031.69;5014823;28;20207;-52
2022/03/25 08:18:22;;;;;;;51.13;44.40;;;20.70;36.20;;;26.18;25.78;103040.44;5010827;28;20229;-53
2022/03/25 08:20:49;;;;;;;51.73;42.13;;;20.90;35.80;;;26.46;25.42;103041.84;5006237;28;20218;-50
2022/03/25 08:28:57;;;;;;;51.47;43.60;;;21.50;33.80;;;27.21;23.74;103046.78;5006194;28;20286;-51
2022/03/25 08:31:43;;;;;;;53.27;42.93;;;21.70;33.50;;;27.42;23.65;103053.59;5000558;28;20215;-51
2022/03/25 08:34:14;;;;;;;48.60;43.30;;;21.80;33.30;;;27.61;23.87;103055.19;5000944;28;20730;-48
2022/03/25 08:36:43;;;;;;;54.30;43.17;;;22.10;33.60;;;27.80;23.76;103061.34;5003908;28;20254;-51
2022/03/25 08:39:13;;;;;;;45.13;40.33;;;22.40;33.00;;;27.98;23.15;103056.66;5014567;28;20298;-59
2022/03/25 08:41:41;;;;;;;47.90;42.17;;;22.60;32.60;;;28.16;23.28;103061.22;5005094;28;20226;-49
2022/03/25 08:44:10;;;;;;;42.87;37.83;;;22.90;30.90;;;28.37;22.30;103059.78;5001674;28;20743;-52
2022/03/25 08:46:38;;;;;;;48.50;38.87;;;23.00;30.50;;;28.54;21.94;103064.25;5002799;28;20249;-53
2022/03/25 08:49:10;;;;;;;50.37;39.53;;;23.30;30.30;;;28.75;21.49;103060.13;5003069;28;20654;-50
2022/03/25 08:51:38;;;;;;;37.97;33.67;;;23.40;29.50;;;28.95;21.65;103068.72;5004456;28;20293;-50
2022/03/25 08:54:08;;;;;;;41.17;36.20;;;23.60;29.40;;;29.14;21.12;103061.22;5005996;28;20219;-53
2022/03/25 08:56:38;;;;;;;41.37;36.80;;;23.70;28.80;;;29.39;20.65;103072.56;5010916;28;20300;-52
2022/03/25 08:59:05;;;;;;;46.43;39.07;;;23.80;28.70;;;29.69;20.51;103075.03;5008357;28;20226;-51
2022/03/25 09:01:33;;;;;;;39.97;34.93;;;24.00;28.70;;;29.96;20.32;103067.91;5002360;28;20298;-52
2022/03/25 09:04:01;;;;;;;43.77;36.67;;;24.30;28.90;;;30.34;20.18;103070.72;5005819;28;20215;-52
2022/03/25 09:06:28;;;;;;;43.07;37.27;;;24.60;28.50;;;30.70;19.48;103070.16;5013397;28;20205;-51
2022/03/25 09:08:56;;;;;;;42.03;35.97;;;24.90;27.60;;;30.97;18.98;103074.88;5008129;28;20231;-53
2022/03/25 09:11:24;;;;;;;38.70;34.73;;;25.00;27.20;;;31.22;18.92;103073.25;5003561;28;20664;-51
2022/03/25 09:13:54;;;;;;;40.83;35.57;;;25.20;26.90;;;31.42;18.06;103072.66;5006725;28;20240;-53
2022/03/25 09:16:21;;;;;;;37.97;33.97;;;25.40;26.50;;;31.61;18.08;103076.69;5003743;28;20217;-57
2022/03/25 09:18:50;;;;;;;37.93;33.93;;;25.60;26.80;;;31.86;18.01;103074.19;5001408;28;20211;-50
2022/03/25 09:21:18;;;;;;;40.90;36.37;;;25.80;26.70;;;32.07;17.50;103067.00;5002738;28;20199;-54
2022/03/25 09:23:46;;;;;;;38.30;33.23;;;26.00;25.60;;;32.36;18.26;103070.19;5006612;28;20211;-53
2022/03/25 09:26:14;;;;;;;40.90;36.77;;;26.30;26.20;;;32.71;17.31;103065.00;5002267;28;20202;-56
2022/03/25 09:28:41;;;;;;;39.73;35.40;;;26.60;26.10;;;33.07;16.99;103069.50;5009767;28;21219;-50
2022/03/25 09:31:10;;;;;;;38.87;35.00;;;26.80;25.60;;;33.31;16.81;103069.81;5005695;28;20694;-52
2022/03/25 09:33:50;;;;;;;38.73;34.73;;;27.00;25.10;;;33.55;16.53;103070.16;5005350;28;20294;-58
2022/03/25 09:36:17;;;;;;;37.77;33.80;;;27.30;25.20;;;33.71;16.68;103077.31;5001338;28;20202;-52
2022/03/25 09:38:45;;;;;;;36.77;32.83;;;27.30;24.80;;;33.73;16.75;103066.91;4994371;28;20274;-52
2022/03/25 09:41:12;;;;;;;34.47;30.87;;;27.50;24.60;;;33.78;16.41;103072.38;4996841;28;20207;-49
2022/03/25 09:43:40;;;;;;;35.73;32.00;;;27.50;24.20;;;33.84;16.26;103068.56;4996670;28;20196;-51
2022/03/25 09:46:09;;;;;;;38.97;29.60;;;27.70;24.30;;;33.95;16.14;103070.16;4997224;28;20205;-50
2022/03/25 09:48:36;;;;;;;31.80;27.33;;;27.70;24.30;;;34.27;16.14;103072.63;4997870;28;20234;-55
2022/03/25 09:51:23;;;;;;;30.27;27.27;;;28.00;24.10;;;34.69;15.52;103065.69;4980566;28;20284;-54
2022/03/25 09:53:52;;;;;;;29.37;25.00;;;28.30;23.30;;;35.01;14.66;103068.00;4981561;28;20679;-54
2022/03/25 09:56:20;;;;;;;27.67;24.57;;;28.50;22.50;;;35.16;14.10;103069.88;4978351;28;20249;-57
2022/03/25 09:58:48;;;;;;;29.00;25.90;;;28.70;21.80;;;35.22;13.91;103069.56;4975191;28;20203;-52
2022/03/25 10:01:17;;;;;;;27.17;24.27;;;28.80;20.70;;;35.36;14.24;103069.75;4968290;28;20203;-53
2022/03/25 10:03:45;;;;;;;32.97;26.20;;;28.90;21.40;;;35.58;13.84;103061.94;4968040;28;20195;-50
2022/03/25 10:06:14;;;;;;;26.92;24.20;;;29.10;21.10;;;35.84;13.78;103060.63;4962952;28;20203;-52
2022/03/25 10:08:53;;;;;;;29.90;26.37;;;29.20;21.50;;;36.25;14.15;103073.97;4929420;28;20351;-53
2022/03/25 10:11:23;;;;;;;39.67;26.95;;;29.50;21.30;;;36.57;13.69;103069.50;4888488;28;20201;-60